Wilkie, Canada
Current Conditions -  °F | °C
As of 12:00 PM on Monday 20 Oct 2014 (Local Time) from CYQW Reporting Station
Clear Clear  
Wind Chill: 64°   Ceiling: Unl
Heat Index: 64°   Visibility: 9mi
Dew Point: 39°   Wind: 15mph
Humidity: 40%   Direction: 180°S
Pressure: 29.66"   Gusts: NA
Location:  52.42°N, 108.7°W
Report Text: CYQW 201800Z AUTO 18013KT 9SM CLR 18/04 A2966 RMK TS/LTNG TEMPO UNAVBL SLP052 DENSITY ALT 2800FT
Loading
Personal Weather Stations






























Interactive Weather Map
Tropical Storm Tracking
New forecast layout! Learn more

10-Day Weather Forecast

Advertisements
Track Severe Weather on mobile